메인 페이지
METAR-TAF:

METAR-TAF

공항 :

University of Oklahoma Westheimer Airport

Norman, 오클라호마, 미국

위도: 35-13N, 경도: 097-27W, 고도: 357m

현재 날씨관측

예보는 23분 전, 10:15시(UTC)에 발표되었습니다.
무풍
온도 0°C
습도 100%
기압 1017 hPa
고도 400ft 상공 흐림
안개

METAR: KOUN 281015Z AUTO 00000KT M1/4SM FG OVC004 00/00 A3003 RMK AO2 T00041000

시각: 05:38 (10:38 UTC)

예보

예보는 5 시간 7분 전, 05:31시(UTC)에 발표되었습니다.
예보 대상 시간: 28일 06시부터 29일 06시까지 (UTC)
10kt
시정: 8.0km
고도 500ft 상공 흐림
약한이슬비, 박무
28일 1200시부터 (UTC)
11kt
시정: 4.8km
고도 700ft 상공 흐림
약한비, 박무
29일 0200시부터 (UTC)
북북서15kt
시정: 4.8km
고도 500ft 상공 흐림
약한비, 박무

TAF: KOUN 280531Z 2806/2906 01010KT 5SM -DZ BR OVC005 FM281200 36011KT 3SM -RA BR OVC007 FM290200 33015KT 3SM -RA BR OVC005

4,000개 이상의 공항 관측 자료 및 예보 (METAR 및 TAF 보고).

지도상에서 검색 가능한 기상관측소가 노란 점과 빨간 점으로 표시되어 있습니다.

기상관측소 명을 보려면 표시 위로 마우스를 이동하세요.

날씨 관측과 예보를 보려면 클릭하세요.

지도 변경 : 확대하려면 엑스 표시가 있는 녹색 버튼, 축소하려면 빼기 표시가 있는 녹색 버튼, 다음 페이지의 지도를 보려면 녹색 화살표를 클릭하세요.


METAR-TAF: